createdAt,value
2018-04-28T00:00:53.932Z,992.84
2018-04-28T00:01:53.917Z,992.84
2018-04-28T00:02:53.914Z,992.84
2018-04-28T00:03:53.911Z,992.81
2018-04-28T00:04:53.923Z,992.83
2018-04-28T00:05:53.915Z,992.86
2018-04-28T00:06:53.901Z,992.85
2018-04-28T00:07:53.979Z,992.85
2018-04-28T00:08:53.897Z,992.84
2018-04-28T00:09:53.893Z,992.84
2018-04-28T00:10:53.889Z,992.86
2018-04-28T00:11:53.897Z,992.91
2018-04-28T00:12:53.882Z,992.84
2018-04-28T00:13:53.878Z,992.87
2018-04-28T00:14:53.877Z,992.89
2018-04-28T00:15:53.947Z,992.89
2018-04-28T00:16:53.876Z,992.86
2018-04-28T00:17:53.865Z,992.87
2018-04-28T00:18:53.896Z,992.93
2018-04-28T00:19:53.860Z,992.94
2018-04-28T00:20:53.865Z,992.91
2018-04-28T00:21:53.854Z,992.93
2018-04-28T00:22:53.854Z,992.91
2018-04-28T00:23:53.847Z,992.93
2018-04-28T00:24:53.846Z,992.94
2018-04-28T00:25:53.842Z,992.96
2018-04-28T00:26:55.467Z,992.92
2018-04-28T00:27:53.850Z,992.99
2018-04-28T00:28:53.832Z,992.94
2018-04-28T00:29:53.827Z,992.93
2018-04-28T00:30:53.828Z,992.95
2018-04-28T00:31:53.829Z,992.96
2018-04-28T00:32:53.819Z,992.93
2018-04-28T00:33:53.822Z,992.92
2018-04-28T00:34:53.824Z,992.95
2018-04-28T00:35:53.812Z,992.90
2018-04-28T00:36:53.811Z,992.94
2018-04-28T00:37:53.812Z,992.94
2018-04-28T00:38:53.819Z,992.91
2018-04-28T00:39:53.824Z,992.92
2018-04-28T00:40:53.821Z,992.93
2018-04-28T00:41:53.794Z,992.92
2018-04-28T00:42:53.786Z,992.94
2018-04-28T00:43:53.786Z,992.93
2018-04-28T00:44:53.791Z,992.93
2018-04-28T00:45:53.775Z,992.93
2018-04-28T00:46:54.412Z,992.91
2018-04-28T00:47:53.769Z,992.96
2018-04-28T00:48:53.766Z,992.91
2018-04-28T00:49:53.761Z,992.94
2018-04-28T00:50:53.761Z,992.95
2018-04-28T00:51:53.760Z,992.96
2018-04-28T00:52:53.751Z,992.96
2018-04-28T00:53:53.749Z,992.98
2018-04-28T00:54:53.744Z,992.94
2018-04-28T00:55:53.756Z,992.95
2018-04-28T00:56:53.740Z,992.92
2018-04-28T00:57:53.734Z,992.94
2018-04-28T00:58:53.736Z,992.93
2018-04-28T00:59:53.773Z,992.96
2018-04-28T01:00:53.724Z,992.93
2018-04-28T01:01:53.724Z,992.94
2018-04-28T01:02:53.721Z,992.88
2018-04-28T01:03:53.719Z,992.90
2018-04-28T01:04:53.720Z,992.92
2018-04-28T01:05:53.720Z,992.89
2018-04-28T01:06:53.710Z,992.93
2018-04-28T01:07:53.701Z,992.95
2018-04-28T01:08:53.729Z,992.93
2018-04-28T01:09:53.693Z,992.96
2018-04-28T01:10:53.692Z,993.00
2018-04-28T01:11:53.690Z,992.98
2018-04-28T01:12:53.687Z,993.01
2018-04-28T01:13:53.691Z,993.00
2018-04-28T01:14:53.679Z,993.03
2018-04-28T01:15:53.681Z,993.03
2018-04-28T01:16:53.673Z,993.03
2018-04-28T01:17:53.671Z,992.99
2018-04-28T01:18:53.665Z,993.02
2018-04-28T01:19:53.682Z,993.04
2018-04-28T01:20:53.667Z,993.01
2018-04-28T01:21:53.667Z,993.02
2018-04-28T01:22:53.654Z,993.06
2018-04-28T01:23:55.476Z,993.01
2018-04-28T01:24:53.713Z,993.01
2018-04-28T01:25:53.788Z,993.03
2018-04-28T01:26:53.683Z,993.05
2018-04-28T01:27:53.636Z,993.06
2018-04-28T01:28:53.666Z,993.04
2018-04-28T01:29:53.636Z,993.08
2018-04-28T01:30:53.626Z,993.04
2018-04-28T01:31:53.621Z,993.06
2018-04-28T01:32:53.653Z,993.09
2018-04-28T01:33:53.614Z,993.07
2018-04-28T01:34:53.610Z,993.08
2018-04-28T01:35:53.607Z,993.09
2018-04-28T01:36:53.603Z,993.16
2018-04-28T01:37:53.601Z,993.09
2018-04-28T01:38:53.601Z,993.11
2018-04-28T01:39:53.599Z,993.11
2018-04-28T01:40:53.596Z,993.11
2018-04-28T01:41:53.589Z,993.11
2018-04-28T01:42:53.583Z,993.13
2018-04-28T01:43:53.578Z,993.16
2018-04-28T01:44:53.588Z,993.15
2018-04-28T01:45:53.582Z,993.16
2018-04-28T01:46:53.570Z,993.19
2018-04-28T01:47:53.647Z,993.23
2018-04-28T01:48:53.564Z,993.23
2018-04-28T01:49:53.558Z,993.24
2018-04-28T01:50:53.583Z,993.21
2018-04-28T01:51:53.555Z,993.25
2018-04-28T01:52:53.550Z,993.27
2018-04-28T01:53:53.547Z,993.26
2018-04-28T01:54:53.544Z,993.27
2018-04-28T01:55:53.537Z,993.32
2018-04-28T01:56:53.540Z,993.29
2018-04-28T01:57:53.538Z,993.29
2018-04-28T01:58:53.527Z,993.32
2018-04-28T01:59:53.552Z,993.33
2018-04-28T02:00:53.519Z,993.30
2018-04-28T02:01:53.517Z,993.36
2018-04-28T02:02:53.514Z,993.36
2018-04-28T02:03:53.511Z,993.38
2018-04-28T02:04:53.508Z,993.38
2018-04-28T02:05:53.502Z,993.39
2018-04-28T02:06:53.499Z,993.42
2018-04-28T02:07:53.506Z,993.42
2018-04-28T02:08:53.522Z,993.40
2018-04-28T02:09:53.487Z,993.44
2018-04-28T02:10:53.486Z,993.45
2018-04-28T02:11:53.481Z,993.46
2018-04-28T02:12:53.478Z,993.45
2018-04-28T02:13:53.475Z,993.48
2018-04-28T02:14:53.473Z,993.49
2018-04-28T02:15:53.467Z,993.46
2018-04-28T02:16:53.476Z,993.48
2018-04-28T02:17:53.462Z,993.49
2018-04-28T02:18:53.669Z,993.49
2018-04-28T02:19:53.452Z,993.54
2018-04-28T02:20:53.451Z,993.59
2018-04-28T02:21:53.448Z,993.57
2018-04-28T02:22:53.443Z,993.57
2018-04-28T02:23:53.442Z,993.57
2018-04-28T02:24:53.440Z,993.59
2018-04-28T02:25:53.436Z,993.59
2018-04-28T02:26:53.430Z,993.56
2018-04-28T02:27:53.428Z,993.56
2018-04-28T02:28:53.423Z,993.64
2018-04-28T02:29:53.422Z,993.60
2018-04-28T02:30:53.416Z,993.62
2018-04-28T02:31:53.414Z,993.65
2018-04-28T02:32:53.408Z,993.64
2018-04-28T02:33:53.415Z,993.67
2018-04-28T02:34:53.402Z,993.67
2018-04-28T02:35:53.397Z,993.65
2018-04-28T02:36:53.391Z,993.72
2018-04-28T02:37:53.418Z,993.66
2018-04-28T02:38:53.385Z,993.68
2018-04-28T02:39:53.382Z,993.72
2018-04-28T02:40:53.385Z,993.71
2018-04-28T02:41:53.374Z,993.69
2018-04-28T02:42:53.370Z,993.73
2018-04-28T02:43:53.366Z,993.80
2018-04-28T02:44:53.364Z,993.72
2018-04-28T02:45:53.367Z,993.77
2018-04-28T02:46:53.353Z,993.77
2018-04-28T02:47:53.352Z,993.78
2018-04-28T02:48:53.353Z,993.76
2018-04-28T02:49:54.048Z,993.80
2018-04-28T02:50:53.343Z,993.80
2018-04-28T02:51:53.345Z,993.80
2018-04-28T02:52:53.360Z,993.84
2018-04-28T02:53:53.330Z,993.88
2018-04-28T02:54:53.327Z,993.87
2018-04-28T02:55:53.322Z,993.91
2018-04-28T02:56:53.327Z,993.91
2018-04-28T02:57:53.320Z,993.93
2018-04-28T02:58:53.318Z,993.97
2018-04-28T02:59:53.307Z,993.94
2018-04-28T03:00:53.305Z,994.01
2018-04-28T03:01:53.300Z,994.01
2018-04-28T03:02:53.304Z,994.05
2018-04-28T03:03:53.292Z,994.03
2018-04-28T03:04:53.288Z,994.06
2018-04-28T03:05:53.289Z,994.07
2018-04-28T03:06:53.287Z,994.04
2018-04-28T03:07:53.275Z,994.09
2018-04-28T03:08:53.274Z,994.09
2018-04-28T03:09:53.268Z,994.04
2018-04-28T03:10:53.266Z,994.14
2018-04-28T03:11:53.261Z,994.13
2018-04-28T03:12:53.257Z,994.15
2018-04-28T03:13:53.259Z,994.17
2018-04-28T03:14:53.249Z,994.13
2018-04-28T03:15:53.247Z,994.16
2018-04-28T03:16:53.248Z,994.17
2018-04-28T03:17:53.263Z,994.15
2018-04-28T03:18:53.243Z,994.17
2018-04-28T03:19:53.233Z,994.18
2018-04-28T03:20:53.226Z,994.17
2018-04-28T03:21:53.222Z,994.19
2018-04-28T03:22:53.218Z,994.19
2018-04-28T03:23:53.238Z,994.15
2018-04-28T03:24:53.211Z,994.22
2018-04-28T03:25:53.212Z,994.25
2018-04-28T03:26:53.202Z,994.27
2018-04-28T03:27:53.203Z,994.28
2018-04-28T03:28:53.226Z,994.29
2018-04-28T03:29:53.193Z,994.31
2018-04-28T03:30:53.188Z,994.32
2018-04-28T03:31:53.186Z,994.35
2018-04-28T03:32:53.179Z,994.33
2018-04-28T03:33:53.176Z,994.36
2018-04-28T03:34:53.175Z,994.35
2018-04-28T03:35:53.172Z,994.33
2018-04-28T03:36:53.163Z,994.33
2018-04-28T03:37:53.162Z,994.33
2018-04-28T03:38:53.164Z,994.36
2018-04-28T03:39:53.150Z,994.37
2018-04-28T03:40:53.149Z,994.37
2018-04-28T03:41:53.143Z,994.42
2018-04-28T03:42:53.138Z,994.39
2018-04-28T03:43:53.135Z,994.41
2018-04-28T03:44:53.129Z,994.37
2018-04-28T03:45:53.126Z,994.37
2018-04-28T03:46:53.123Z,994.38
2018-04-28T03:47:53.117Z,994.41
2018-04-28T03:48:53.113Z,994.40
2018-04-28T03:49:53.108Z,994.46
2018-04-28T03:50:53.107Z,994.40
2018-04-28T03:51:53.104Z,994.46
2018-04-28T03:52:53.098Z,994.48
2018-04-28T03:53:53.094Z,994.47
2018-04-28T03:54:53.099Z,994.50
2018-04-28T03:55:53.102Z,994.55
2018-04-28T03:56:53.084Z,994.52
2018-04-28T03:57:53.076Z,994.58
2018-04-28T03:58:53.071Z,994.54
2018-04-28T03:59:53.068Z,994.59
2018-04-28T04:00:53.067Z,994.62
2018-04-28T04:01:53.063Z,994.58
2018-04-28T04:02:53.054Z,994.61
2018-04-28T04:03:53.051Z,994.65
2018-04-28T04:04:53.048Z,994.63
2018-04-28T04:05:53.049Z,994.67
2018-04-28T04:06:53.037Z,994.71
2018-04-28T04:07:53.048Z,994.71
2018-04-28T04:08:53.034Z,994.68
2018-04-28T04:09:53.032Z,994.72
2018-04-28T04:10:53.027Z,994.72
2018-04-28T04:11:53.019Z,994.66
2018-04-28T04:12:53.016Z,994.71
2018-04-28T04:13:53.008Z,994.78
2018-04-28T04:14:53.010Z,994.73
2018-04-28T04:15:53.001Z,994.77
2018-04-28T04:16:53.008Z,994.80
2018-04-28T04:17:52.993Z,994.79
2018-04-28T04:18:52.993Z,994.79
2018-04-28T04:19:52.983Z,994.79
2018-04-28T04:20:52.982Z,994.80
2018-04-28T04:21:54.505Z,994.84
2018-04-28T04:22:52.975Z,994.80
2018-04-28T04:23:52.969Z,994.81
2018-04-28T04:24:52.963Z,994.83
2018-04-28T04:25:52.955Z,994.84
2018-04-28T04:26:52.957Z,994.90
2018-04-28T04:27:52.951Z,994.88
2018-04-28T04:28:52.976Z,994.90
2018-04-28T04:29:52.938Z,994.90
2018-04-28T04:30:52.937Z,994.93
2018-04-28T04:31:52.935Z,994.94
2018-04-28T04:32:52.928Z,995.00
2018-04-28T04:33:52.922Z,995.00
2018-04-28T04:34:52.918Z,994.98
2018-04-28T04:35:52.919Z,995.02
2018-04-28T04:36:52.909Z,995.04
2018-04-28T04:37:52.903Z,995.02
2018-04-28T04:38:52.899Z,994.99
2018-04-28T04:39:52.900Z,995.03
2018-04-28T04:40:52.893Z,995.06
2018-04-28T04:41:52.887Z,995.05
2018-04-28T04:42:52.884Z,995.08
2018-04-28T04:43:52.879Z,995.10
2018-04-28T04:44:52.875Z,995.14
2018-04-28T04:45:52.871Z,995.14
2018-04-28T04:46:52.870Z,995.18
2018-04-28T04:47:52.862Z,995.13
2018-04-28T04:48:52.861Z,995.14
2018-04-28T04:49:52.856Z,995.19
2018-04-28T04:50:52.851Z,995.21
2018-04-28T04:51:52.847Z,995.21
2018-04-28T04:52:53.612Z,995.19
2018-04-28T04:53:52.845Z,995.25
2018-04-28T04:54:52.836Z,995.28
2018-04-28T04:55:52.834Z,995.31
2018-04-28T04:56:52.858Z,995.31
2018-04-28T04:57:52.826Z,995.34
2018-04-28T04:58:52.823Z,995.35
2018-04-28T04:59:52.819Z,995.33
2018-04-28T05:00:52.818Z,995.36
2018-04-28T05:01:52.813Z,995.37
2018-04-28T05:02:52.810Z,995.43
2018-04-28T05:03:52.819Z,995.42
2018-04-28T05:04:52.803Z,995.43
2018-04-28T05:05:52.800Z,995.48
2018-04-28T05:06:52.807Z,995.49
2018-04-28T05:07:52.793Z,995.52
2018-04-28T05:08:52.795Z,995.52
2018-04-28T05:09:52.786Z,995.57
2018-04-28T05:10:52.790Z,995.57
2018-04-28T05:11:52.788Z,995.60
2018-04-28T05:12:52.849Z,995.61
2018-04-28T05:13:52.775Z,995.61
2018-04-28T05:14:52.805Z,995.62
2018-04-28T05:15:52.770Z,995.64
2018-04-28T05:16:52.770Z,995.61
2018-04-28T05:17:52.763Z,995.62
2018-04-28T05:18:52.760Z,995.64
2018-04-28T05:19:52.759Z,995.62
2018-04-28T05:20:52.782Z,995.64
2018-04-28T05:21:52.752Z,995.65
2018-04-28T05:22:52.749Z,995.69
2018-04-28T05:23:52.745Z,995.63
2018-04-28T05:24:52.747Z,995.71
2018-04-28T05:25:52.756Z,995.71
2018-04-28T05:26:52.741Z,995.75
2018-04-28T05:27:52.752Z,995.75
2018-04-28T05:28:52.739Z,995.78
2018-04-28T05:29:52.731Z,995.77
2018-04-28T05:30:52.730Z,995.80
2018-04-28T05:31:52.731Z,995.79
2018-04-28T05:32:52.727Z,995.83
2018-04-28T05:33:52.724Z,995.82
2018-04-28T05:34:52.727Z,995.88
2018-04-28T05:35:52.751Z,995.85
2018-04-28T05:36:52.722Z,995.87
2018-04-28T05:37:52.725Z,995.87
2018-04-28T05:38:52.736Z,995.90
2018-04-28T05:39:52.732Z,995.89
2018-04-28T05:40:52.720Z,995.92
2018-04-28T05:41:52.714Z,995.90
2018-04-28T05:42:52.715Z,995.92
2018-04-28T05:43:52.713Z,995.92
2018-04-28T05:44:52.714Z,995.94
2018-04-28T05:45:52.712Z,995.98
2018-04-28T05:46:52.711Z,995.97
2018-04-28T05:47:52.711Z,995.94
2018-04-28T05:48:52.712Z,996.00
2018-04-28T05:49:52.710Z,995.99
2018-04-28T05:50:52.711Z,995.96
2018-04-28T05:51:52.708Z,996.05
2018-04-28T05:52:52.711Z,996.01
2018-04-28T05:53:52.716Z,996.01
2018-04-28T05:54:52.709Z,996.04
2018-04-28T05:55:52.707Z,996.04
2018-04-28T05:56:52.706Z,996.05
2018-04-28T05:57:52.771Z,996.02
2018-04-28T05:58:52.705Z,996.03
2018-04-28T05:59:52.716Z,996.07
2018-04-28T06:00:52.717Z,996.05
2018-04-28T06:01:52.707Z,996.07
2018-04-28T06:02:52.717Z,996.12
2018-04-28T06:03:52.703Z,996.12
2018-04-28T06:04:52.701Z,996.08
2018-04-28T06:05:52.715Z,996.06
2018-04-28T06:06:52.707Z,996.02
2018-04-28T06:07:52.710Z,996.06
2018-04-28T06:08:52.698Z,996.06
2018-04-28T06:09:52.697Z,996.11
2018-04-28T06:10:52.700Z,996.04
2018-04-28T06:11:52.713Z,996.02
2018-04-28T06:12:52.694Z,995.99
2018-04-28T06:13:52.693Z,996.06
2018-04-28T06:14:52.696Z,996.08
2018-04-28T06:15:52.694Z,996.09
2018-04-28T06:16:52.691Z,996.02
2018-04-28T06:17:52.690Z,996.04
2018-04-28T06:18:52.689Z,996.03
2018-04-28T06:19:52.691Z,996.03
2018-04-28T06:20:52.691Z,996.08
2018-04-28T06:21:52.693Z,996.07
2018-04-28T06:22:52.724Z,996.06
2018-04-28T06:23:52.686Z,996.04
2018-04-28T06:24:52.771Z,996.06
2018-04-28T06:25:52.693Z,996.05
2018-04-28T06:26:52.697Z,996.06
2018-04-28T06:27:52.684Z,996.07
2018-04-28T06:28:52.686Z,996.06
2018-04-28T06:29:52.682Z,996.06
2018-04-28T06:30:52.680Z,996.08
2018-04-28T06:31:52.682Z,996.08
2018-04-28T06:32:52.680Z,996.08
2018-04-28T06:33:52.677Z,996.09
2018-04-28T06:34:52.677Z,996.08
2018-04-28T06:35:52.714Z,996.08
2018-04-28T06:36:52.684Z,996.05
2018-04-28T06:37:52.678Z,996.03
2018-04-28T06:38:52.677Z,996.01
2018-04-28T06:39:52.676Z,996.04
2018-04-28T06:40:52.677Z,996.04
2018-04-28T06:41:52.676Z,996.03
2018-04-28T06:42:52.694Z,996.08
2018-04-28T06:43:52.671Z,996.04
2018-04-28T06:44:52.671Z,996.02
2018-04-28T06:45:52.669Z,996.05
2018-04-28T06:46:52.668Z,996.08
2018-04-28T06:47:52.668Z,996.08
2018-04-28T06:48:52.668Z,996.07
2018-04-28T06:49:52.674Z,996.06
2018-04-28T06:50:52.680Z,996.03
2018-04-28T06:51:52.665Z,996.10
2018-04-28T06:52:52.663Z,996.09
2018-04-28T06:53:52.676Z,996.05
2018-04-28T06:54:52.663Z,996.09
2018-04-28T06:55:53.150Z,996.11
2018-04-28T06:56:52.661Z,996.11
2018-04-28T06:57:52.660Z,996.10
2018-04-28T06:58:52.668Z,996.07
2018-04-28T06:59:52.664Z,996.11
2018-04-28T07:00:52.673Z,996.08
2018-04-28T07:01:52.684Z,996.11
2018-04-28T07:02:52.657Z,996.13
2018-04-28T07:03:52.656Z,996.13
2018-04-28T07:04:52.669Z,996.17
2018-04-28T07:05:52.659Z,996.18
2018-04-28T07:06:52.655Z,996.14
2018-04-28T07:07:52.655Z,996.20
2018-04-28T07:08:52.661Z,996.20
2018-04-28T07:09:52.654Z,996.22
2018-04-28T07:10:52.745Z,996.16
2018-04-28T07:11:52.652Z,996.20
2018-04-28T07:12:52.658Z,996.16
2018-04-28T07:13:52.651Z,996.16
2018-04-28T07:14:52.656Z,996.22
2018-04-28T07:15:52.703Z,996.18
2018-04-28T07:16:52.656Z,996.17
2018-04-28T07:17:52.651Z,996.21
2018-04-28T07:18:52.655Z,996.19
2018-04-28T07:19:52.655Z,996.21
2018-04-28T07:20:52.650Z,996.20
2018-04-28T07:21:52.679Z,996.16
2018-04-28T07:22:52.674Z,996.22
2018-04-28T07:23:52.652Z,996.24
2018-04-28T07:24:52.653Z,996.23
2018-04-28T07:25:52.649Z,996.27
2018-04-28T07:26:53.558Z,996.27
2018-04-28T07:27:52.648Z,996.24
2018-04-28T07:28:52.650Z,996.21
2018-04-28T07:29:52.653Z,996.23
2018-04-28T07:30:52.652Z,996.21
2018-04-28T07:31:52.662Z,996.19
2018-04-28T07:32:52.654Z,996.20
2018-04-28T07:33:52.652Z,996.17
2018-04-28T07:34:52.679Z,996.19
2018-04-28T07:35:52.654Z,996.21
2018-04-28T07:36:52.661Z,996.17
2018-04-28T07:37:52.655Z,996.22
2018-04-28T07:38:52.653Z,996.18
2018-04-28T07:39:52.653Z,996.16
2018-04-28T07:40:52.655Z,996.17
2018-04-28T07:41:52.651Z,996.14
2018-04-28T07:42:52.652Z,996.17
2018-04-28T07:43:52.664Z,996.17
2018-04-28T07:44:52.665Z,996.17
2018-04-28T07:45:52.658Z,996.18
2018-04-28T07:46:52.681Z,996.14
2018-04-28T07:47:52.654Z,996.16
2018-04-28T07:48:52.660Z,996.18
2018-04-28T07:49:52.690Z,996.19
2018-04-28T07:50:52.656Z,996.17
2018-04-28T07:51:52.656Z,996.19
2018-04-28T07:52:52.661Z,996.16
2018-04-28T07:53:52.664Z,996.15
2018-04-28T07:54:52.659Z,996.10
2018-04-28T07:55:52.659Z,996.14
2018-04-28T07:56:52.664Z,996.19
2018-04-28T07:57:52.659Z,996.14
2018-04-28T07:58:52.678Z,996.13
2018-04-28T07:59:52.673Z,996.10
2018-04-28T08:00:52.663Z,996.09
2018-04-28T08:01:52.663Z,996.13
2018-04-28T08:02:52.665Z,996.12
2018-04-28T08:03:52.665Z,996.12
2018-04-28T08:04:52.672Z,996.10
2018-04-28T08:05:52.672Z,996.10
2018-04-28T08:06:52.678Z,996.08
2018-04-28T08:07:52.668Z,996.09
2018-04-28T08:08:52.746Z,996.08
2018-04-28T08:09:52.678Z,996.09
2018-04-28T08:10:52.679Z,996.09
2018-04-28T08:11:52.672Z,996.07
2018-04-28T08:12:52.676Z,996.10
2018-04-28T08:13:52.684Z,996.13
2018-04-28T08:14:52.680Z,996.12
2018-04-28T08:15:52.675Z,996.16
2018-04-28T08:16:52.678Z,996.12
2018-04-28T08:17:52.680Z,996.15
2018-04-28T08:18:52.679Z,996.10
2018-04-28T08:19:52.681Z,996.12
2018-04-28T08:20:52.687Z,996.11
2018-04-28T08:21:52.697Z,996.19
2018-04-28T08:22:52.691Z,996.16
2018-04-28T08:23:52.687Z,996.19
2018-04-28T08:24:52.688Z,996.18
2018-04-28T08:25:52.691Z,996.16
2018-04-28T08:26:52.689Z,996.20
2018-04-28T08:27:52.690Z,996.18
2018-04-28T08:28:52.699Z,996.18
2018-04-28T08:29:52.761Z,996.13
2018-04-28T08:30:52.703Z,996.19
2018-04-28T08:31:52.712Z,996.21
2018-04-28T08:32:52.697Z,996.17
2018-04-28T08:33:52.699Z,996.23
2018-04-28T08:34:52.703Z,996.17
2018-04-28T08:35:52.702Z,996.19
2018-04-28T08:36:52.757Z,996.19
2018-04-28T08:37:52.705Z,996.19
2018-04-28T08:38:52.708Z,996.20
2018-04-28T08:39:52.708Z,996.17
2018-04-28T08:40:52.712Z,996.20
2018-04-28T08:41:52.713Z,996.20
2018-04-28T08:42:52.715Z,996.19
2018-04-28T08:43:52.715Z,996.17
2018-04-28T08:44:52.719Z,996.26
2018-04-28T08:45:52.718Z,996.15
2018-04-28T08:46:52.724Z,996.20
2018-04-28T08:47:52.730Z,996.17
2018-04-28T08:48:52.730Z,996.11
2018-04-28T08:49:52.730Z,996.11
2018-04-28T08:50:52.748Z,996.10
2018-04-28T08:51:52.739Z,996.13
2018-04-28T08:52:52.731Z,996.11
2018-04-28T08:53:52.739Z,996.12
2018-04-28T08:54:52.745Z,996.18
2018-04-28T08:55:52.737Z,996.25
2018-04-28T08:56:52.774Z,996.24
2018-04-28T08:57:52.742Z,996.26
2018-04-28T08:58:52.756Z,996.26
2018-04-28T08:59:52.752Z,996.19
2018-04-28T09:00:52.757Z,996.17
2018-04-28T09:01:52.769Z,996.16
2018-04-28T09:02:52.767Z,996.10
2018-04-28T09:03:52.778Z,996.11
2018-04-28T09:04:52.773Z,996.13
2018-04-28T09:05:52.780Z,996.18
2018-04-28T09:06:52.787Z,996.13
2018-04-28T09:07:52.804Z,996.11
2018-04-28T09:08:52.801Z,996.07
2018-04-28T09:09:52.811Z,996.03
2018-04-28T09:10:52.816Z,996.06
2018-04-28T09:11:52.830Z,996.07
2018-04-28T09:12:52.837Z,996.12
2018-04-28T09:13:52.840Z,996.08
2018-04-28T09:14:52.856Z,996.16
2018-04-28T09:15:52.857Z,996.07
2018-04-28T09:16:52.873Z,996.11
2018-04-28T09:17:52.876Z,996.11
2018-04-28T09:18:52.886Z,996.16
2018-04-28T09:19:52.894Z,996.12
2018-04-28T09:20:52.900Z,996.16
2018-04-28T09:21:52.910Z,996.14
2018-04-28T09:22:52.936Z,996.17
2018-04-28T09:23:53.578Z,996.07
2018-04-28T09:24:53.410Z,996.12
2018-04-28T09:25:52.939Z,996.12
2018-04-28T09:26:52.944Z,996.10
2018-04-28T09:27:52.957Z,996.06
2018-04-28T09:28:52.958Z,996.03
2018-04-28T09:29:53.092Z,996.04
2018-04-28T09:30:52.972Z,996.06
2018-04-28T09:31:53.000Z,996.04
2018-04-28T09:32:52.999Z,995.98
2018-04-28T09:33:52.994Z,996.00
2018-04-28T09:34:52.994Z,995.99
2018-04-28T09:35:53.005Z,995.94
2018-04-28T09:36:53.006Z,995.90
2018-04-28T09:37:53.010Z,995.93
2018-04-28T09:38:53.016Z,996.01
2018-04-28T09:39:53.024Z,996.02
2018-04-28T09:40:53.030Z,995.94
2018-04-28T09:41:53.034Z,995.98
2018-04-28T09:42:53.037Z,995.95
2018-04-28T09:43:53.051Z,995.89
2018-04-28T09:44:53.053Z,995.95
2018-04-28T09:45:53.052Z,995.86
2018-04-28T09:46:53.059Z,995.97
2018-04-28T09:47:53.060Z,995.93
2018-04-28T09:48:53.064Z,995.96
2018-04-28T09:49:53.069Z,995.98
2018-04-28T09:50:53.072Z,996.01
2018-04-28T09:51:53.077Z,995.95
2018-04-28T09:52:53.165Z,995.94
2018-04-28T09:53:53.084Z,995.92
2018-04-28T09:54:53.098Z,995.94
2018-04-28T09:55:53.094Z,995.95
2018-04-28T09:56:53.111Z,995.92
2018-04-28T09:57:53.105Z,995.92
2018-04-28T09:58:53.183Z,995.96
2018-04-28T09:59:53.127Z,995.92
2018-04-28T10:00:53.505Z,995.95
2018-04-28T10:01:53.134Z,996.01
2018-04-28T10:02:53.125Z,996.02
2018-04-28T10:03:53.133Z,995.97
2018-04-28T10:04:53.131Z,995.94
2018-04-28T10:05:53.172Z,995.92
2018-04-28T10:06:53.141Z,995.83
2018-04-28T10:07:53.145Z,995.88
2018-04-28T10:08:53.154Z,995.90
2018-04-28T10:09:53.159Z,995.93
2018-04-28T10:10:53.158Z,995.97
2018-04-28T10:11:53.161Z,995.87
2018-04-28T10:12:53.166Z,995.86
2018-04-28T10:13:53.172Z,995.81
2018-04-28T10:14:53.173Z,995.76
2018-04-28T10:15:53.218Z,995.86
2018-04-28T10:16:53.226Z,995.86
2018-04-28T10:17:53.189Z,995.86
2018-04-28T10:18:53.191Z,995.87
2018-04-28T10:19:53.195Z,995.79
2018-04-28T10:20:53.199Z,995.80
2018-04-28T10:21:53.214Z,995.71
2018-04-28T10:22:53.204Z,995.80
2018-04-28T10:23:53.207Z,995.68
2018-04-28T10:24:53.217Z,995.66
2018-04-28T10:25:53.215Z,995.61
2018-04-28T10:26:53.234Z,995.55
2018-04-28T10:27:53.233Z,995.63
2018-04-28T10:28:53.238Z,995.68
2018-04-28T10:29:53.238Z,995.66
2018-04-28T10:30:53.297Z,995.68
2018-04-28T10:31:53.912Z,995.76
2018-04-28T10:32:53.264Z,995.86
2018-04-28T10:33:53.250Z,995.85
2018-04-28T10:34:53.256Z,995.81
2018-04-28T10:35:53.268Z,995.79
2018-04-28T10:36:53.266Z,995.77
2018-04-28T10:37:53.273Z,995.77
2018-04-28T10:38:53.293Z,995.75
2018-04-28T10:39:53.287Z,995.70
2018-04-28T10:40:53.292Z,995.71
2018-04-28T10:41:53.300Z,995.69
2018-04-28T10:42:53.311Z,995.68
2018-04-28T10:43:53.317Z,995.70
2018-04-28T10:44:53.344Z,995.73
2018-04-28T10:45:53.338Z,995.69
2018-04-28T10:46:53.343Z,995.72
2018-04-28T10:47:53.354Z,995.69
2018-04-28T10:48:53.366Z,995.76
2018-04-28T10:49:53.490Z,995.76
2018-04-28T10:50:53.391Z,995.79
2018-04-28T10:51:53.633Z,995.84
2018-04-28T10:52:53.424Z,995.78
2018-04-28T10:53:53.497Z,995.83
2018-04-28T10:54:53.431Z,995.87
2018-04-28T10:55:53.442Z,995.89
2018-04-28T10:56:53.497Z,995.84
2018-04-28T10:57:53.464Z,995.92
2018-04-28T10:58:53.502Z,995.64
2018-04-28T10:59:53.492Z,995.62
2018-04-28T11:00:53.501Z,995.69
2018-04-28T11:01:53.525Z,995.67
2018-04-28T11:02:54.381Z,995.67
2018-04-28T11:03:53.740Z,995.61
2018-04-28T11:04:53.549Z,995.61
2018-04-28T11:05:53.590Z,995.56
2018-04-28T11:06:53.610Z,995.60
2018-04-28T11:07:53.598Z,995.53
2018-04-28T11:08:53.602Z,995.51
2018-04-28T11:09:53.625Z,995.48
2018-04-28T11:10:53.612Z,995.58
2018-04-28T11:11:53.648Z,995.50
2018-04-28T11:12:53.639Z,995.48
2018-04-28T11:13:53.688Z,995.52
2018-04-28T11:14:53.653Z,995.50
2018-04-28T11:15:53.660Z,995.44
2018-04-28T11:16:53.672Z,995.33
2018-04-28T11:17:53.788Z,995.48
2018-04-28T11:18:53.695Z,995.55
2018-04-28T11:19:53.752Z,995.48
2018-04-28T11:20:53.701Z,995.49
2018-04-28T11:21:53.708Z,995.47
2018-04-28T11:22:53.727Z,995.43
2018-04-28T11:23:53.727Z,995.37
2018-04-28T11:24:53.731Z,995.37
2018-04-28T11:25:53.772Z,995.32
2018-04-28T11:26:53.746Z,995.30
2018-04-28T11:27:53.750Z,995.32
2018-04-28T11:28:53.817Z,995.26
2018-04-28T11:29:53.765Z,995.29
2018-04-28T11:30:53.771Z,995.27
2018-04-28T11:31:53.852Z,995.25
2018-04-28T11:32:53.846Z,995.26
2018-04-28T11:33:54.766Z,995.24
2018-04-28T11:34:53.844Z,995.24
2018-04-28T11:35:53.877Z,995.21
2018-04-28T11:36:53.882Z,995.22
2018-04-28T11:37:53.868Z,995.21
2018-04-28T11:38:53.830Z,995.17
2018-04-28T11:39:53.833Z,995.16
2018-04-28T11:40:53.838Z,995.10
2018-04-28T11:41:53.838Z,995.18
2018-04-28T11:42:53.844Z,995.09
2018-04-28T11:43:53.849Z,995.20
2018-04-28T11:44:53.860Z,995.24
2018-04-28T11:45:53.862Z,995.26
2018-04-28T11:46:53.868Z,995.22
2018-04-28T11:47:53.875Z,995.20
2018-04-28T11:48:53.880Z,995.23
2018-04-28T11:49:53.887Z,995.19
2018-04-28T11:50:53.977Z,995.19
2018-04-28T11:51:53.900Z,995.15
2018-04-28T11:52:53.904Z,995.16
2018-04-28T11:53:53.909Z,995.16
2018-04-28T11:54:53.924Z,995.11
2018-04-28T11:55:55.260Z,995.15
2018-04-28T11:56:53.930Z,995.12
2018-04-28T11:57:53.934Z,995.14
2018-04-28T11:58:54.012Z,995.11
2018-04-28T11:59:53.951Z,995.06
2018-04-28T12:00:53.951Z,995.04
2018-04-28T12:01:53.957Z,995.04
2018-04-28T12:02:53.969Z,995.10
2018-04-28T12:03:54.019Z,995.05
2018-04-28T12:04:54.010Z,995.08
2018-04-28T12:05:54.023Z,995.08
2018-04-28T12:06:54.031Z,995.07
2018-04-28T12:07:54.030Z,995.06
2018-04-28T12:08:54.031Z,995.10
2018-04-28T12:09:54.099Z,995.04
2018-04-28T12:10:54.045Z,995.02
2018-04-28T12:11:54.024Z,995.10
2018-04-28T12:12:54.030Z,995.14
2018-04-28T12:13:54.032Z,995.16
2018-04-28T12:14:54.044Z,995.11
2018-04-28T12:15:54.041Z,995.04
2018-04-28T12:16:54.049Z,995.13
2018-04-28T12:17:54.059Z,995.08
2018-04-28T12:18:54.059Z,995.00
2018-04-28T12:19:54.069Z,995.04
2018-04-28T12:20:54.084Z,995.09
2018-04-28T12:21:54.076Z,995.04
2018-04-28T12:22:54.094Z,995.10
2018-04-28T12:23:54.096Z,995.10
2018-04-28T12:24:54.100Z,995.07
2018-04-28T12:25:54.108Z,995.09
2018-04-28T12:26:54.108Z,995.08
2018-04-28T12:27:54.119Z,995.06
2018-04-28T12:28:54.146Z,994.99